Shubra el-Kheima, Egypt
Current Conditions -  °F | °C
As of 3:00 PM on Friday 19 Dec 2014 (Local Time) from HECA Reporting Station
Few Clouds Few Clouds  
Wind Chill: 68°   Ceiling: Unl
Heat Index: 68°   Visibility: 6mi
Dew Point: 52°   Wind: 9mph
Humidity: 56%   Direction: 360°N
Pressure: 30.06"   Gusts: NA
Location:  30.1°N, 31.25°E
Report Text: HECA 191300Z 36008KT 9999 FEW025 20/11 Q1018 NOSIG
Loading
Personal Weather Stations






























Interactive Weather Map New forecast layout! Learn more

10-Day Weather Forecast

Advertisements
Track Severe Weather on mobile